Time;durP1;ratioP1;P1;durP2;ratioP2;P2;SDS_P1;SDS_P2;PMS_P1;PMS_P2;Temp;Humidity;BMP_temperature;BMP_pressure;BME280_temperature;BME280_humidity;BME280_pressure;Samples;Min_cycle;Max_cycle;Signal;HPM_P1;HPM_P2
2024/02/20 00:00:19;;;;;;;6.53;2.25;;;15.50;99.90;;;;;;5005786;28;20029;-75
2024/02/20 00:02:45;;;;;;;9.47;2.53;;;15.50;99.90;;;;;;5008313;28;20034;-72
2024/02/20 00:05:12;;;;;;;9.93;2.53;;;15.40;99.90;;;;;;5007420;28;20483;-72
2024/02/20 00:07:39;;;;;;;7.93;2.47;;;15.50;99.90;;;;;;5003431;28;20049;-74
2024/02/20 00:10:08;;;;;;;6.97;2.38;;;15.50;99.90;;;;;;5003325;28;20036;-73
2024/02/20 00:12:37;;;;;;;8.98;2.75;;;15.50;99.90;;;;;;5001717;28;20029;-72
2024/02/20 00:15:08;;;;;;;6.50;2.20;;;15.50;99.90;;;;;;5005931;28;20040;-73
2024/02/20 00:17:37;;;;;;;6.13;2.50;;;15.40;99.90;;;;;;5000597;28;20034;-74
2024/02/20 00:20:06;;;;;;;9.32;2.47;;;15.40;99.90;;;;;;4997289;28;20080;-74
2024/02/20 00:22:33;;;;;;;6.25;1.80;;;15.40;99.90;;;;;;5005827;28;20057;-75
2024/02/20 00:24:58;;;;;;;;;;;15.40;99.90;;;;;;5006581;28;20072;-75
2024/02/20 00:27:24;;;;;;;16.50;3.13;;;15.40;99.90;;;;;;5006217;28;19910;-73
2024/02/20 00:29:50;;;;;;;9.47;2.30;;;15.40;99.90;;;;;;4997018;28;20033;-75
2024/02/20 00:32:21;;;;;;;10.43;2.70;;;15.40;99.90;;;;;;5002322;28;20037;-75
2024/02/20 00:34:47;;;;;;;8.07;2.33;;;15.40;99.90;;;;;;4998798;28;20117;-75
2024/02/20 00:37:14;;;;;;;4.75;1.70;;;15.40;99.90;;;;;;5001495;28;20090;-73
2024/02/20 00:39:40;;;;;;;;;;;15.40;99.90;;;;;;5000310;28;20069;-73
2024/02/20 00:42:07;;;;;;;8.43;1.87;;;15.40;99.90;;;;;;5004338;28;19967;-72
2024/02/20 00:44:32;;;;;;;;;;;15.40;99.90;;;;;;5006186;28;20298;-73
2024/02/20 00:46:58;;;;;;;7.95;1.75;;;15.30;99.90;;;;;;5000759;28;19913;-74
2024/02/20 00:49:24;;;;;;;8.33;2.20;;;15.30;99.90;;;;;;5003782;28;20034;-73
2024/02/20 00:51:50;;;;;;;6.30;2.93;;;15.30;99.90;;;;;;4996374;28;20026;-75
2024/02/20 00:54:16;;;;;;;6.73;2.30;;;15.30;99.90;;;;;;4999023;28;20089;-74
2024/02/20 00:56:42;;;;;;;8.13;1.93;;;15.30;99.90;;;;;;4991767;28;20088;-73
2024/02/20 00:59:09;;;;;;;7.93;2.33;;;15.30;99.90;;;;;;4998315;28;20045;-75
2024/02/20 01:01:35;;;;;;;6.20;1.70;;;15.30;99.90;;;;;;5003127;28;20029;-73
2024/02/20 01:04:01;;;;;;;8.73;2.70;;;15.30;99.90;;;;;;4997679;28;20033;-72
2024/02/20 01:06:26;;;;;;;10.37;2.27;;;15.30;99.90;;;;;;4995755;28;20034;-74
2024/02/20 01:08:52;;;;;;;7.87;1.97;;;15.30;99.90;;;;;;4999901;28;20123;-72
2024/02/20 01:11:18;;;;;;;8.67;1.93;;;15.30;99.90;;;;;;4996712;28;20121;-73
2024/02/20 01:13:44;;;;;;;7.23;2.53;;;15.20;99.90;;;;;;5002216;28;20038;-72
2024/02/20 01:16:09;;;;;;;6.03;1.80;;;15.20;99.90;;;;;;4990366;28;20030;-72
2024/02/20 01:18:36;;;;;;;9.90;2.10;;;15.30;99.90;;;;;;5005319;28;20506;-73
2024/02/20 01:21:02;;;;;;;6.32;1.67;;;15.20;99.90;;;;;;5007172;28;20030;-73
2024/02/20 01:23:27;;;;;;;9.77;2.40;;;15.20;99.90;;;;;;4997576;28;20038;-73
2024/02/20 01:25:53;;;;;;;8.47;2.37;;;15.20;99.90;;;;;;4995415;28;20038;-74
2024/02/20 01:28:19;;;;;;;8.93;2.03;;;15.20;99.90;;;;;;5002445;28;20038;-73
2024/02/20 01:30:45;;;;;;;6.57;1.70;;;15.20;99.90;;;;;;4995868;28;20026;-74
2024/02/20 01:33:11;;;;;;;11.47;2.27;;;15.20;99.90;;;;;;5001263;28;20030;-74
2024/02/20 01:35:38;;;;;;;7.77;2.87;;;15.20;99.90;;;;;;4997538;28;20263;-73
2024/02/20 01:38:04;;;;;;;5.78;2.03;;;15.20;99.90;;;;;;5002479;28;20403;-72
2024/02/20 01:40:31;;;;;;;3.88;1.60;;;15.20;99.90;;;;;;5008499;28;20060;-73
2024/02/20 01:43:03;;;;;;;7.45;1.55;;;15.20;99.90;;;;;;5005805;28;20034;-74
2024/02/20 01:45:30;;;;;;;8.20;1.90;;;15.20;99.90;;;;;;5009001;28;20030;-73
2024/02/20 01:47:56;;;;;;;;;;;15.20;99.90;;;;;;5003560;28;20030;-72
2024/02/20 01:50:22;;;;;;;8.05;1.90;;;15.20;99.90;;;;;;4999360;28;20018;-72
2024/02/20 01:52:48;;;;;;;9.60;1.53;;;15.10;99.90;;;;;;5005723;28;20037;-72
2024/02/20 01:55:15;;;;;;;7.47;2.00;;;15.10;99.90;;;;;;5002237;28;20264;-73
2024/02/20 01:57:41;;;;;;;7.72;1.55;;;15.10;99.90;;;;;;4993794;28;20399;-73
2024/02/20 02:00:07;;;;;;;11.10;2.00;;;15.10;99.90;;;;;;5006522;28;20033;-72
2024/02/20 02:02:33;;;;;;;;;;;15.10;99.90;;;;;;4993874;28;20027;-73
2024/02/20 02:05:00;;;;;;;7.35;2.08;;;15.10;99.90;;;;;;5007671;28;19913;-74
2024/02/20 02:07:25;;;;;;;6.50;1.83;;;15.10;99.90;;;;;;4994736;28;20050;-73
2024/02/20 02:09:51;;;;;;;9.00;2.03;;;15.10;99.90;;;;;;5000736;28;20064;-73
2024/02/20 02:12:17;;;;;;;4.50;1.70;;;15.10;99.90;;;;;;5005810;28;20030;-72
2024/02/20 02:14:45;;;;;;;6.43;1.55;;;15.10;99.90;;;;;;4995117;28;20271;-72
2024/02/20 02:17:12;;;;;;;6.82;2.35;;;15.10;99.90;;;;;;5000275;28;20541;-74
2024/02/20 02:19:38;;;;;;;4.65;1.58;;;15.10;99.90;;;;;;4993793;28;20038;-74
2024/02/20 02:22:04;;;;;;;6.72;1.70;;;15.10;99.90;;;;;;5006212;28;20033;-72
2024/02/20 02:24:30;;;;;;;2.70;1.30;;;15.10;99.90;;;;;;5000946;28;20038;-74
2024/02/20 02:26:56;;;;;;;5.20;1.83;;;15.10;99.90;;;;;;4994919;28;20485;-73
2024/02/20 02:29:22;;;;;;;9.03;2.10;;;15.00;99.90;;;;;;4993295;28;20041;-73
2024/02/20 02:31:47;;;;;;;7.30;2.33;;;15.10;99.90;;;;;;4996172;28;20041;-72
2024/02/20 02:34:13;;;;;;;5.77;1.80;;;15.10;99.90;;;;;;5000409;28;20030;-73
2024/02/20 02:36:39;;;;;;;5.70;1.70;;;15.10;99.90;;;;;;5001743;28;20030;-74
2024/02/20 02:39:04;;;;;;;6.93;1.60;;;15.00;99.90;;;;;;5003953;28;20538;-72
2024/02/20 02:41:30;;;;;;;7.10;2.20;;;15.00;99.90;;;;;;5006367;28;20034;-75
2024/02/20 02:43:56;;;;;;;5.57;1.73;;;15.00;99.90;;;;;;5001170;28;20045;-73
2024/02/20 02:46:22;;;;;;;7.23;1.87;;;15.00;99.90;;;;;;5006871;28;20058;-74
2024/02/20 02:48:50;;;;;;;3.40;1.20;;;15.00;99.90;;;;;;5000262;28;20030;-73
2024/02/20 02:51:16;;;;;;;6.00;1.50;;;15.00;99.90;;;;;;4999822;28;20029;-73
2024/02/20 02:53:42;;;;;;;3.67;1.47;;;15.00;99.90;;;;;;4995999;28;20045;-72
2024/02/20 02:56:09;;;;;;;4.13;1.43;;;15.00;99.90;;;;;;4996114;28;20387;-74
2024/02/20 02:58:35;;;;;;;6.65;1.92;;;15.00;99.90;;;;;;5004808;28;20515;-72
2024/02/20 03:01:01;;;;;;;7.80;1.77;;;15.00;99.90;;;;;;4997209;28;20106;-72
2024/02/20 03:03:27;;;;;;;4.03;1.50;;;15.00;99.90;;;;;;5009553;28;20037;-73
2024/02/20 03:05:52;;;;;;;6.70;1.70;;;15.00;99.90;;;;;;4998699;28;20045;-73
2024/02/20 03:08:18;;;;;;;3.40;1.17;;;15.00;99.90;;;;;;5002153;28;20052;-72
2024/02/20 03:10:44;;;;;;;4.77;1.87;;;15.00;99.90;;;;;;4997274;28;20072;-72
2024/02/20 03:13:09;;;;;;;9.87;1.67;;;15.00;99.90;;;;;;5006346;28;20022;-73
2024/02/20 03:15:35;;;;;;;3.50;1.37;;;15.00;99.90;;;;;;5004341;28;20033;-74
2024/02/20 03:18:01;;;;;;;6.37;1.40;;;15.00;99.90;;;;;;5002562;28;20042;-72
2024/02/20 03:20:26;;;;;;;6.43;1.30;;;14.90;99.90;;;;;;5000005;28;20045;-73
2024/02/20 03:22:53;;;;;;;9.07;1.77;;;14.90;99.90;;;;;;5003728;28;20507;-73
2024/02/20 03:25:19;;;;;;;5.15;2.00;;;14.90;99.90;;;;;;5003704;28;20083;-73
2024/02/20 03:27:45;;;;;;;5.17;1.40;;;14.90;99.90;;;;;;5012953;28;20037;-72
2024/02/20 03:30:11;;;;;;;6.83;1.80;;;14.90;99.90;;;;;;5016846;28;20112;-72
2024/02/20 03:32:36;;;;;;;6.15;1.65;;;14.90;99.90;;;;;;5001157;28;20080;-73
2024/02/20 03:35:05;;;;;;;5.80;1.23;;;14.90;99.90;;;;;;4996686;28;20038;-73
2024/02/20 03:37:31;;;;;;;4.35;1.33;;;14.90;99.90;;;;;;5000321;28;20125;-73
2024/02/20 03:39:57;;;;;;;5.30;1.50;;;14.90;99.90;;;;;;5009441;28;20120;-73
2024/02/20 03:42:22;;;;;;;4.13;1.13;;;14.90;99.90;;;;;;5002842;28;20059;-72
2024/02/20 03:44:48;;;;;;;6.70;1.50;;;14.90;99.90;;;;;;5008886;28;20045;-73
2024/02/20 03:47:14;;;;;;;6.23;1.50;;;14.90;99.90;;;;;;4997685;28;20030;-72
2024/02/20 03:49:39;;;;;;;7.37;1.50;;;14.90;99.90;;;;;;5007950;28;20038;-72
2024/02/20 03:52:05;;;;;;;4.77;1.47;;;14.80;99.90;;;;;;5006400;28;20045;-72
2024/02/20 03:54:31;;;;;;;5.63;1.77;;;14.90;99.90;;;;;;5001051;28;20030;-73
2024/02/20 03:56:57;;;;;;;8.57;2.03;;;14.90;99.90;;;;;;4995692;28;20165;-72
2024/02/20 03:59:23;;;;;;;5.78;1.50;;;14.90;99.90;;;;;;5002387;28;20119;-72
2024/02/20 04:01:48;;;;;;;7.87;1.53;;;14.80;99.90;;;;;;4998899;28;20510;-73
2024/02/20 04:04:15;;;;;;;5.67;1.50;;;14.80;99.90;;;;;;5009912;28;20052;-73
2024/02/20 04:06:41;;;;;;;5.75;1.70;;;14.80;99.90;;;;;;5010502;28;20033;-72
2024/02/20 04:09:06;;;;;;;8.95;1.55;;;14.80;99.90;;;;;;5003870;28;20053;-72
2024/02/20 04:11:33;;;;;;;8.33;1.60;;;14.80;99.90;;;;;;5002209;28;20399;-73
2024/02/20 04:13:59;;;;;;;5.32;1.38;;;14.80;99.90;;;;;;5004774;28;20036;-72
2024/02/20 04:16:25;;;;;;;5.93;1.83;;;14.80;99.90;;;;;;5000738;28;20034;-72
2024/02/20 04:18:51;;;;;;;4.88;1.30;;;14.80;99.90;;;;;;5001657;28;20038;-72
2024/02/20 04:21:16;;;;;;;7.57;1.23;;;14.80;99.90;;;;;;5004067;28;20470;-72
2024/02/20 04:23:42;;;;;;;2.47;0.90;;;14.80;99.90;;;;;;5004246;28;20267;-72
2024/02/20 04:26:08;;;;;;;5.90;1.57;;;14.80;99.90;;;;;;5005621;28;20040;-72
2024/02/20 04:28:36;;;;;;;7.23;1.80;;;14.80;99.90;;;;;;4999007;28;20038;-72
2024/02/20 04:31:02;;;;;;;4.70;1.13;;;14.80;99.90;;;;;;4999611;28;20410;-73
2024/02/20 04:33:29;;;;;;;4.50;1.30;;;14.80;99.90;;;;;;4995917;28;20053;-72
2024/02/20 04:35:55;;;;;;;;;;;14.80;99.90;;;;;;4999194;28;20053;-72
2024/02/20 04:38:21;;;;;;;6.35;1.73;;;14.80;99.90;;;;;;5008044;28;19917;-72
2024/02/20 04:40:48;;;;;;;7.23;1.70;;;14.70;99.90;;;;;;5005663;28;20461;-72
2024/02/20 04:43:14;;;;;;;6.00;1.08;;;14.70;99.90;;;;;;5000358;28;20042;-74
2024/02/20 04:45:40;;;;;;;5.57;1.30;;;14.70;99.90;;;;;;5002529;28;20045;-74
2024/02/20 04:48:07;;;;;;;4.83;1.53;;;14.80;99.90;;;;;;5007068;28;20033;-72
2024/02/20 04:50:33;;;;;;;;;;;14.70;99.90;;;;;;5005453;28;20038;-72
2024/02/20 04:52:59;;;;;;;3.63;1.35;;;14.70;99.90;;;;;;5007628;28;19914;-73
2024/02/20 04:55:26;;;;;;;6.23;1.40;;;14.70;99.90;;;;;;5000916;28;20117;-74
2024/02/20 04:57:52;;;;;;;5.35;1.60;;;14.70;99.90;;;;;;5002983;28;20603;-72
2024/02/20 05:00:18;;;;;;;5.60;1.23;;;14.70;99.90;;;;;;5006446;28;20027;-72
2024/02/20 05:02:44;;;;;;;5.03;1.00;;;14.70;99.90;;;;;;5002100;28;20065;-75
2024/02/20 05:05:10;;;;;;;6.80;1.33;;;14.70;99.90;;;;;;5008627;28;20068;-73
2024/02/20 05:07:36;;;;;;;5.47;1.37;;;14.70;99.90;;;;;;4999720;28;20447;-73
2024/02/20 05:10:05;;;;;;;5.18;1.25;;;14.70;99.90;;;;;;4999475;28;20030;-73
2024/02/20 05:12:31;;;;;;;8.15;1.20;;;14.70;99.90;;;;;;5010637;28;20036;-73
2024/02/20 05:14:57;;;;;;;6.60;1.43;;;14.70;99.90;;;;;;5006970;28;20030;-72
2024/02/20 05:17:22;;;;;;;2.73;1.23;;;14.70;99.90;;;;;;4994702;28;20034;-72
2024/02/20 05:19:48;;;;;;;4.47;1.27;;;14.70;99.90;;;;;;4999195;28;20035;-71
2024/02/20 05:22:15;;;;;;;5.60;1.40;;;14.70;99.90;;;;;;5003482;28;20038;-72
2024/02/20 05:24:42;;;;;;;6.00;1.35;;;14.60;99.90;;;;;;4994993;28;20071;-73
2024/02/20 05:27:09;;;;;;;4.05;1.58;;;14.60;99.90;;;;;;5006213;28;20519;-72
2024/02/20 05:29:34;;;;;;;13.35;1.42;;;14.70;99.90;;;;;;5009219;28;20034;-73
2024/02/20 05:32:03;;;;;;;4.60;1.30;;;14.60;99.90;;;;;;5001331;28;20084;-74
2024/02/20 05:34:29;;;;;;;3.00;1.10;;;14.60;99.90;;;;;;4994590;28;20100;-72
2024/02/20 05:36:55;;;;;;;6.87;1.57;;;14.60;99.90;;;;;;4999803;28;20154;-72
2024/02/20 05:39:20;;;;;;;5.30;1.40;;;14.60;99.90;;;;;;5001411;28;20061;-73
2024/02/20 05:41:47;;;;;;;5.17;1.60;;;14.60;99.90;;;;;;5004106;28;20026;-74
2024/02/20 05:44:12;;;;;;;5.55;1.50;;;14.60;99.90;;;;;;4993497;28;20030;-73
2024/02/20 05:46:40;;;;;;;8.20;2.20;;;14.60;99.90;;;;;;5002103;28;20692;-72
2024/02/20 05:49:06;;;;;;;5.57;1.20;;;14.60;99.90;;;;;;5005307;28;20395;-72
2024/02/20 05:51:32;;;;;;;2.80;1.20;;;14.60;99.90;;;;;;5005190;28;20040;-73
2024/02/20 05:53:59;;;;;;;6.60;1.17;;;14.60;99.90;;;;;;4998816;28;20097;-74
2024/02/20 05:56:25;;;;;;;7.78;1.23;;;14.60;99.90;;;;;;5003192;28;20475;-73
2024/02/20 05:58:51;;;;;;;4.85;1.17;;;14.60;99.90;;;;;;4998077;28;20042;-72
2024/02/20 06:01:17;;;;;;;6.53;1.47;;;14.60;99.90;;;;;;4990903;28;20038;-73
2024/02/20 06:03:44;;;;;;;5.40;1.33;;;14.60;99.90;;;;;;4993402;28;20034;-74
2024/02/20 06:06:11;;;;;;;7.05;1.85;;;14.50;99.90;;;;;;4999262;28;20053;-73
2024/02/20 06:08:47;;;;;;;4.70;1.20;;;14.50;99.90;;;;;;4997833;28;20058;-73
2024/02/20 06:11:17;;;;;;;5.43;0.90;;;14.50;99.90;;;;;;4996120;28;20031;-73
2024/02/20 06:13:44;;;;;;;4.35;1.00;;;14.50;99.90;;;;;;5003277;28;20056;-74
2024/02/20 06:16:11;;;;;;;7.68;1.45;;;14.50;99.90;;;;;;5002365;28;20030;-73
2024/02/20 06:18:39;;;;;;;4.43;1.52;;;14.50;99.90;;;;;;5001521;28;20038;-74
2024/02/20 06:21:06;;;;;;;3.85;1.08;;;14.50;99.90;;;;;;5002650;28;20777;-72
2024/02/20 06:23:36;;;;;;;4.25;1.30;;;14.50;99.90;;;;;;5010748;28;20246;-73
2024/02/20 06:26:02;;;;;;;7.88;1.20;;;14.50;99.90;;;;;;5004146;28;20029;-73
2024/02/20 06:28:28;;;;;;;3.17;1.10;;;14.50;99.90;;;;;;5002697;28;20033;-73
2024/02/20 06:30:55;;;;;;;7.53;1.73;;;14.50;99.90;;;;;;5007092;28;20025;-73
2024/02/20 06:33:21;;;;;;;5.82;1.38;;;14.50;99.90;;;;;;5007017;28;20040;-72
2024/02/20 06:35:47;;;;;;;5.83;1.20;;;14.50;99.90;;;;;;5002293;28;20034;-73
2024/02/20 06:38:12;;;;;;;3.57;1.13;;;14.60;99.90;;;;;;5007103;28;20046;-73
2024/02/20 06:40:38;;;;;;;5.93;1.33;;;14.70;99.90;;;;;;5008385;28;20084;-73
2024/02/20 06:43:04;;;;;;;5.03;1.10;;;14.80;99.90;;;;;;4999709;28;20034;-72
2024/02/20 06:45:30;;;;;;;6.82;1.45;;;14.70;99.90;;;;;;5001755;28;20114;-73
2024/02/20 06:47:56;;;;;;;96.37;33.77;;;14.80;99.90;;;;;;5007121;28;20108;-74
2024/02/20 06:50:22;;;;;;;47.65;15.88;;;14.80;99.90;;;;;;5008848;28;20483;-73
2024/02/20 06:52:47;;;;;;;18.43;7.43;;;14.80;99.90;;;;;;5009413;28;20029;-73
2024/02/20 06:55:13;;;;;;;24.43;8.50;;;14.80;99.90;;;;;;5005206;28;20361;-73
2024/02/20 06:57:39;;;;;;;26.63;7.83;;;14.80;99.90;;;;;;5002103;28;20031;-74
2024/02/20 07:00:12;;;;;;;19.27;9.15;;;14.80;99.90;;;;;;5006220;28;20144;-72
2024/02/20 07:02:44;;;;;;;42.85;32.25;;;14.80;99.90;;;;;;5008229;28;20038;-74
2024/02/20 07:05:11;;;;;;;29.25;13.70;;;14.80;99.90;;;;;;5009337;28;20022;-73
2024/02/20 07:07:37;;;;;;;26.23;12.80;;;14.90;99.90;;;;;;5004062;28;20388;-73
2024/02/20 07:10:04;;;;;;;25.35;13.38;;;14.90;99.90;;;;;;4997593;28;20046;-73
2024/02/20 07:12:30;;;;;;;26.17;11.98;;;14.90;99.90;;;;;;5002234;28;20037;-74
2024/02/20 07:14:56;;;;;;;26.23;12.90;;;15.00;99.90;;;;;;4999897;28;20022;-75
2024/02/20 07:17:21;;;;;;;49.33;29.43;;;14.90;99.90;;;;;;5002743;28;20549;-75
2024/02/20 07:19:47;;;;;;;32.33;15.30;;;15.00;99.90;;;;;;5007524;28;20038;-77
2024/02/20 07:22:13;;;;;;;27.83;15.70;;;15.00;99.90;;;;;;5001543;28;20133;-76
2024/02/20 07:24:39;;;;;;;29.67;15.40;;;15.00;99.90;;;;;;5007659;28;20259;-79
2024/02/20 07:27:05;;;;;;;32.77;14.47;;;15.10;99.90;;;;;;5006307;28;20109;-75
2024/02/20 07:29:31;;;;;;;25.73;12.73;;;15.00;99.90;;;;;;5010671;28;20603;-76
2024/02/20 07:31:57;;;;;;;25.13;13.13;;;14.90;99.90;;;;;;5007389;28;20034;-75
2024/02/20 07:34:22;;;;;;;36.40;12.47;;;14.80;99.90;;;;;;5008974;28;20033;-76
2024/02/20 07:36:48;;;;;;;45.57;27.27;;;14.80;99.90;;;;;;5002382;28;20399;-75
2024/02/20 07:39:14;;;;;;;31.50;13.70;;;14.80;99.90;;;;;;5004098;28;20129;-76
2024/02/20 07:41:41;;;;;;;26.88;13.57;;;14.70;99.90;;;;;;5001956;28;20041;-75
2024/02/20 07:44:06;;;;;;;31.00;12.98;;;14.80;99.90;;;;;;5004616;28;20066;-75
2024/02/20 07:46:32;;;;;;;25.73;11.70;;;15.00;99.90;;;;;;4997459;28;20042;-76
2024/02/20 07:48:59;;;;;;;19.52;12.10;;;14.90;99.90;;;;;;4999969;28;20040;-76
2024/02/20 07:51:24;;;;;;;34.00;11.50;;;15.00;99.90;;;;;;5006709;28;20030;-75
2024/02/20 07:53:51;;;;;;;30.10;11.43;;;15.00;99.90;;;;;;5006256;28;20026;-75
2024/02/20 07:56:27;;;;;;;28.75;10.48;;;15.00;99.90;;;;;;5004246;28;20107;-75
2024/02/20 07:58:53;;;;;;;25.30;10.70;;;15.00;99.90;;;;;;4997160;28;20069;-76
2024/02/20 08:01:19;;;;;;;23.37;9.80;;;15.00;99.90;;;;;;5004040;28;20722;-75
2024/02/20 08:03:48;;;;;;;25.15;10.95;;;15.00;99.90;;;;;;5001092;28;20029;-76
2024/02/20 08:06:14;;;;;;;26.58;10.70;;;15.00;99.90;;;;;;5000989;28;20082;-76
2024/02/20 08:08:41;;;;;;;21.90;11.20;;;15.00;99.90;;;;;;4999566;28;20165;-75
2024/02/20 08:11:08;;;;;;;;;;;15.00;99.90;;;;;;5008303;28;20446;-76
2024/02/20 08:13:33;;;;;;;;;;;15.00;99.90;;;;;;5007024;28;19955;-75
2024/02/20 08:15:59;;;;;;;20.02;10.63;;;15.00;99.90;;;;;;5003369;28;19924;-75
2024/02/20 08:18:25;;;;;;;19.13;8.27;;;15.10;99.90;;;;;;5007428;28;20650;-75
2024/02/20 08:20:51;;;;;;;22.77;9.77;;;15.10;99.90;;;;;;5008057;28;20037;-76
2024/02/20 08:23:16;;;;;;;27.27;10.13;;;15.20;99.90;;;;;;5000336;28;20033;-75
2024/02/20 08:25:42;;;;;;;22.77;10.47;;;15.20;99.90;;;;;;5006966;28;20029;-75
2024/02/20 08:28:08;;;;;;;27.80;10.43;;;15.20;99.90;;;;;;5007360;28;20041;-75
2024/02/20 08:30:33;;;;;;;24.60;9.87;;;15.20;99.90;;;;;;5006885;28;20042;-75
2024/02/20 08:32:59;;;;;;;23.20;8.40;;;15.20;99.90;;;;;;5002634;28;20775;-75
2024/02/20 08:35:25;;;;;;;19.30;9.13;;;15.20;99.90;;;;;;5000096;28;20042;-75
2024/02/20 08:37:51;;;;;;;17.90;9.00;;;15.30;99.90;;;;;;5007592;28;20034;-75
2024/02/20 08:40:16;;;;;;;26.63;9.13;;;15.20;99.90;;;;;;5005730;28;20056;-76
2024/02/20 08:42:42;;;;;;;21.17;9.17;;;15.20;99.90;;;;;;4999845;28;20045;-75
2024/02/20 08:45:08;;;;;;;17.70;7.80;;;15.30;99.90;;;;;;5006420;28;20491;-75
2024/02/20 08:47:35;;;;;;;25.27;9.73;;;15.30;99.90;;;;;;4997821;28;20040;-76
2024/02/20 08:50:00;;;;;;;12.60;7.65;;;15.30;99.90;;;;;;5007144;28;20037;-75
2024/02/20 08:52:26;;;;;;;15.63;9.33;;;15.30;99.90;;;;;;5008713;28;20037;-75
2024/02/20 08:54:52;;;;;;;19.17;7.93;;;15.30;99.90;;;;;;5007196;28;20419;-75
2024/02/20 08:57:18;;;;;;;21.00;8.37;;;15.20;99.90;;;;;;4999841;28;20062;-75
2024/02/20 08:59:45;;;;;;;18.83;7.27;;;15.30;99.90;;;;;;5007309;28;20402;-75
2024/02/20 09:02:10;;;;;;;17.73;8.20;;;15.30;99.90;;;;;;5004563;28;20107;-75
2024/02/20 09:04:37;;;;;;;22.77;7.23;;;15.30;99.90;;;;;;5008306;28;20538;-75
2024/02/20 09:07:03;;;;;;;19.75;6.78;;;15.30;99.90;;;;;;4996442;28;20034;-75
2024/02/20 09:09:30;;;;;;;18.17;7.83;;;15.40;99.90;;;;;;5006998;28;20475;-75
2024/02/20 09:11:56;;;;;;;19.05;7.90;;;15.40;99.90;;;;;;4995730;28;20053;-75
2024/02/20 09:14:21;;;;;;;21.27;9.52;;;15.40;99.90;;;;;;4997098;28;20157;-75
2024/02/20 09:16:48;;;;;;;29.70;9.67;;;15.40;99.90;;;;;;5002064;28;20053;-75
2024/02/20 09:19:15;;;;;;;24.17;9.15;;;15.40;99.90;;;;;;5000657;28;20034;-76
2024/02/20 09:21:41;;;;;;;17.80;8.52;;;15.50;99.90;;;;;;5005177;28;20049;-75
2024/02/20 09:24:10;;;;;;;21.90;8.43;;;15.50;99.90;;;;;;4996776;28;20033;-75
2024/02/20 09:26:36;;;;;;;21.13;9.27;;;15.60;99.90;;;;;;5000102;28;20025;-75
2024/02/20 09:29:02;;;;;;;25.20;10.48;;;15.60;99.90;;;;;;5007436;28;20034;-75
2024/02/20 09:31:29;;;;;;;16.08;8.10;;;15.60;99.90;;;;;;5003412;28;20086;-75
2024/02/20 09:33:55;;;;;;;19.73;8.10;;;15.60;99.90;;;;;;5005839;28;20072;-75
2024/02/20 09:36:21;;;;;;;19.25;8.13;;;15.70;99.90;;;;;;5000303;28;20076;-77
2024/02/20 09:38:47;;;;;;;18.17;7.97;;;15.80;99.90;;;;;;5001590;28;20500;-76
2024/02/20 09:41:21;;;;;;;18.00;7.90;;;15.80;99.90;;;;;;5002157;28;20026;-76
2024/02/20 09:43:48;;;;;;;19.65;8.38;;;15.80;99.90;;;;;;5005371;28;20398;-75
2024/02/20 09:46:19;;;;;;;18.48;7.72;;;15.90;99.90;;;;;;5003614;28;20459;-76
2024/02/20 09:48:47;;;;;;;14.75;7.57;;;15.90;99.90;;;;;;5006921;28;20061;-75
2024/02/20 09:51:18;;;;;;;15.88;6.80;;;15.90;99.90;;;;;;4999705;28;20040;-75
2024/02/20 09:53:44;;;;;;;19.08;7.72;;;16.00;99.90;;;;;;5014374;28;20432;-76
2024/02/20 09:56:13;;;;;;;14.50;7.07;;;16.00;99.90;;;;;;5003508;28;20391;-76
2024/02/20 09:58:39;;;;;;;15.07;7.25;;;16.10;99.90;;;;;;5005152;28;20045;-76
2024/02/20 10:01:07;;;;;;;16.55;8.13;;;16.10;99.90;;;;;;4999348;28;20027;-76
2024/02/20 10:03:35;;;;;;;15.52;6.75;;;16.10;99.90;;;;;;5002537;28;20492;-75
2024/02/20 10:06:02;;;;;;;20.20;7.53;;;16.10;99.90;;;;;;5009333;28;20030;-75
2024/02/20 10:08:28;;;;;;;12.43;6.22;;;16.10;99.90;;;;;;5000391;28;20073;-76
2024/02/20 10:10:53;;;;;;;13.03;6.80;;;16.10;99.90;;;;;;4996090;28;20388;-76
2024/02/20 10:13:19;;;;;;;14.43;6.20;;;16.10;99.90;;;;;;4991406;28;20263;-75
2024/02/20 10:15:47;;;;;;;16.63;6.37;;;16.20;99.90;;;;;;4993569;28;20106;-75
2024/02/20 10:18:17;;;;;;;14.73;6.30;;;16.20;99.90;;;;;;4995233;28;20050;-74
2024/02/20 10:20:42;;;;;;;16.60;6.57;;;16.30;99.90;;;;;;5003597;28;20452;-76
2024/02/20 10:23:09;;;;;;;32.17;12.03;;;16.30;99.90;;;;;;4996116;28;20114;-76
2024/02/20 10:25:36;;;;;;;23.77;9.60;;;16.30;99.90;;;;;;4999285;28;20050;-75
2024/02/20 10:28:06;;;;;;;20.65;8.82;;;16.40;99.90;;;;;;5001786;28;20115;-75
2024/02/20 10:30:33;;;;;;;19.83;8.40;;;16.30;99.90;;;;;;5000155;28;20037;-74
2024/02/20 10:32:59;;;;;;;21.67;8.38;;;16.40;99.90;;;;;;5001996;28;20023;-75
2024/02/20 10:35:25;;;;;;;25.85;10.70;;;16.40;99.90;;;;;;5006416;28;20038;-75
2024/02/20 10:38:02;;;;;;;22.30;9.82;;;16.40;99.90;;;;;;5000029;28;20026;-76
2024/02/20 10:40:28;;;;;;;26.40;10.43;;;16.40;99.90;;;;;;5001561;28;20045;-75
2024/02/20 10:42:56;;;;;;;42.45;12.55;;;16.40;99.90;;;;;;4998704;28;20080;-76
2024/02/20 10:45:23;;;;;;;40.15;14.10;;;16.40;99.90;;;;;;5004826;28;20451;-74
2024/02/20 10:47:51;;;;;;;;;;;16.40;99.90;;;;;;5004512;28;20033;-75
2024/02/20 10:50:16;;;;;;;67.10;25.10;;;16.40;99.90;;;;;;5003512;28;20040;-75
2024/02/20 10:52:44;;;;;;;77.97;31.67;;;16.50;99.90;;;;;;4993744;28;20528;-75
2024/02/20 10:55:13;;;;;;;66.10;22.65;;;16.40;99.90;;;;;;5006734;28;20041;-74
2024/02/20 10:57:41;;;;;;;58.35;19.95;;;16.50;99.90;;;;;;4996536;28;20038;-76
2024/02/20 11:00:11;;;;;;;58.33;19.35;;;16.50;99.90;;;;;;5007332;28;20034;-77
2024/02/20 11:02:38;;;;;;;77.55;22.85;;;16.60;99.90;;;;;;5010002;28;20022;-74
2024/02/20 11:05:04;;;;;;;;;;;16.60;99.90;;;;;;5008980;28;20069;-76
2024/02/20 11:07:30;;;;;;;47.95;18.35;;;16.60;99.90;;;;;;5008056;28;19921;-78
2024/02/20 11:10:07;;;;;;;58.00;21.07;;;16.70;99.90;;;;;;5007424;28;20085;-78
2024/02/20 11:12:33;;;;;;;53.85;18.15;;;16.80;99.90;;;;;;5006056;28;20783;-76
2024/02/20 11:15:28;;;;;;;59.38;20.10;;;16.80;99.90;;;;;;5002916;28;20026;-76
2024/02/20 11:17:53;;;;;;;46.72;17.52;;;16.80;99.90;;;;;;5005021;28;20046;-76
2024/02/20 11:20:21;;;;;;;51.80;16.63;;;16.80;99.90;;;;;;5008137;28;20037;-76
2024/02/20 11:22:51;;;;;;;52.58;16.70;;;16.80;99.90;;;;;;5002500;28;20084;-75
2024/02/20 11:25:20;;;;;;;50.90;17.30;;;16.80;99.90;;;;;;5005663;28;20116;-76
2024/02/20 11:27:47;;;;;;;47.67;16.35;;;16.90;99.90;;;;;;5002782;28;20034;-77
2024/02/20 11:30:22;;;;;;;;;;;16.90;99.90;;;;;;5001933;28;20030;-76
2024/02/20 11:32:51;;;;;;;43.08;13.43;;;16.90;99.90;;;;;;5006702;28;20046;-76
2024/02/20 11:35:25;;;;;;;52.00;19.10;;;17.00;99.90;;;;;;5007937;28;20140;-76
2024/02/20 11:37:55;;;;;;;41.55;14.52;;;17.00;99.90;;;;;;5000552;28;20033;-76
2024/02/20 11:40:22;;;;;;;48.15;15.00;;;17.00;99.90;;;;;;5000665;28;20402;-75
2024/02/20 11:42:48;;;;;;;50.40;14.00;;;17.10;99.90;;;;;;5002987;28;20033;-78
2024/02/20 11:45:19;;;;;;;46.63;14.65;;;17.10;99.90;;;;;;5004842;28;20061;-76
2024/02/20 11:48:00;;;;;;;39.20;13.50;;;17.10;99.90;;;;;;5004308;28;20156;-76
2024/02/20 11:50:31;;;;;;;38.60;13.52;;;17.10;99.90;;;;;;4999080;28;20184;-76
2024/02/20 11:53:03;;;;;;;38.78;12.73;;;17.20;99.90;;;;;;4996254;28;20030;-78
2024/02/20 11:55:29;;;;;;;41.13;13.30;;;17.20;99.90;;;;;;5004540;28;20707;-77
2024/02/20 11:57:56;;;;;;;37.58;12.80;;;17.30;99.90;;;;;;5000363;28;20030;-76
2024/02/20 12:00:22;;;;;;;36.75;12.77;;;17.40;99.90;;;;;;5003911;28;20048;-83
2024/02/20 12:02:52;;;;;;;35.53;12.07;;;17.50;99.90;;;;;;5001940;28;20113;-75
2024/02/20 12:05:25;;;;;;;30.35;12.13;;;17.50;99.90;;;;;;4998940;28;20122;-74
2024/02/20 12:07:52;;;;;;;34.53;11.82;;;17.50;99.90;;;;;;5002999;28;20054;-75
2024/02/20 12:10:18;;;;;;;36.25;11.40;;;17.50;99.90;;;;;;5005168;28;20172;-75
2024/02/20 12:12:44;;;;;;;34.58;11.27;;;17.60;99.90;;;;;;5004454;28;20428;-75
2024/02/20 12:15:13;;;;;;;31.80;11.67;;;17.50;99.90;;;;;;5005455;28;20165;-75
2024/02/20 12:17:40;;;;;;;28.83;11.00;;;17.60;99.90;;;;;;5008028;28;20124;-75
2024/02/20 12:20:09;;;;;;;38.78;10.93;;;17.60;99.90;;;;;;5008863;28;20037;-75
2024/02/20 12:22:35;;;;;;;36.47;11.23;;;17.60;99.90;;;;;;4994535;28;20117;-75
2024/02/20 12:25:10;;;;;;;29.55;11.02;;;17.50;99.90;;;;;;4994626;28;20491;-75
2024/02/20 12:27:36;;;;;;;32.60;10.45;;;17.50;99.90;;;;;;4992035;28;20779;-76
2024/02/20 12:30:03;;;;;;;35.67;10.13;;;17.60;99.90;;;;;;4998764;28;20079;-75
2024/02/20 12:32:29;;;;;;;37.33;11.57;;;17.60;99.90;;;;;;4995712;28;20030;-77
2024/02/20 12:34:55;;;;;;;34.87;10.03;;;17.60;99.90;;;;;;4999665;28;20030;-75
2024/02/20 12:37:22;;;;;;;36.90;8.65;;;17.60;99.90;;;;;;5001275;28;20280;-74
2024/02/20 12:39:48;;;;;;;36.25;9.73;;;17.70;99.90;;;;;;5000630;28;20041;-76